Aérodrome :
LOGIN :

S'inscrire | Disclaimer

   EN    FR    IT 

 










Légende :    VFR   VFR Marginal   IFR   IFR Intensif   IFR Très Intensif
Visi : 
Plafond : 
>= 8 km
>= 3000ft
5 à 8 km
1000 à 3000 ft
1500m à 5 km
500 à 1000 ft
800 à 1500m
200 à 500 ft
< 800m
< 200 ft
Symboles :   Orages  Brouillard  Fortes neiges  Fortes précipitations  Vent > 20 kt
SIGMETs :   Divers  Orages  Givrage  Turbulence  Onde Orograph.  Cendres Volcan.






- Altitude de l'aérodrome : 2588 ft
- Code IATA : AOE


LTBY - Anadolu University

DERNIER METAR :
  • 300050Z 21002KT 7000 NSC 08/08 Q1018

METARs EXPIRÉS :
  • 292350Z 00000KT 6000 NSC 08/08 Q1019
  • 292250Z 00000KT 6000 NSC 08/08 Q1019

TAF TAF LTBY
Valide du 30 à 00h jusqu'au 30 à 09h UTC


292240Z 3000/3009 VRB02KT 7000 SCT040 BKN100
TEMPO 3003/3006 4000 BR
TEMPO 3006/3009 4000 -SHRA BR SCT012 BKN033 BKN100



MET'MAP, la Météo Aéronautique d'un coup d'oeil ! - Copyright ORBIFLY Décembre 2007 - Disclaimer

ORBIFLY MET'MAP TEAM :

Programmation & Développement : Alexandra Zaïnal
Sur une idée originale de : Baudouin d'Aumeries
Assistance à la programmation : Marc-Olivier Méhu
Soutien technique & logistique : Manuel Goepfert

Contact : metmap@orbifly.com




SOURCES & CREDITS :

   NOAA